Meteo Giornale » Osservazioni meteo Stati Uniti (USA) » Plattsburgh
ore: 00:53 - Osservazioni Meteo Plattsburgh
Lat. 44° 39' N Lon. 73° 28' W Alt. 72 metri s.l.m.
16 °C
Coperto
Temp. 24 Ore
11 °C
24 °C
Nord
0 Km/h
Dew point 13 °C
Umidità 82 %
Visibilità 10 Km
Il sole sorge alle ore 06:16
Il sole tramonta alle ore 19:30
| Data e Ora | Cielo e Fenomeni | T °C | DP °C | Um. % | Pres. hPa | Vis. km | Vento km/h | |
|---|---|---|---|---|---|---|---|---|
| Oggi h: 00:53 | Coperto | 16 | 13 | 82 | 1017 | 10 | N 0 | |
| Ieri h: 23:53 | Nuvoloso | 15 | 13 | 87 | 1017 | 10 | N 0 | |
| Ieri h: 22:53 | Sereno | 16 | 13 | 82 | 1017 | 10 | N 0 | |
| Ieri h: 21:53 | Poco Nuvoloso | 16 | 13 | 82 | 1017 | 10 | N 0 | |
| Ieri h: 20:53 | Sereno | 16 | 14 | 87 | 1017 | 10 | N 0 | |
| Ieri h: 19:53 | Sereno | 18 | 14 | 77 | 1017 | 10 | N 0 | |
| Ieri h: 18:53 | Sereno | 21 | 12 | 56 | 1017 | 10 | N/NE 7.4 | |
| Ieri h: 17:53 | Sereno | 22 | 12 | 53 | 1017 | 10 | N/NE 7.4 | |
| Ieri h: 16:53 | Sereno | 24 | 12 | 47 | 1018 | 10 | E/NE 11.1 | |
| Ieri h: 15:53 | Sereno | 23 | 13 | 53 | 1018 | 10 | E 7.4 | |
| Ieri h: 14:53 | Sereno | 24 | 11 | 43 | 1018 | 10 | E 13 | |
| Ieri h: 13:53 | Sereno | 22 | 14 | 60 | 1019 | 10 | E 9.3 | |
| Ieri h: 12:53 | Sereno | 22 | 15 | 64 | 1019 | 10 | E 11.1 | |
| Ieri h: 11:53 | Poco Nuvoloso | 21 | 16 | 73 | 1020 | 10 | SE 9.3 | |
| Ieri h: 11:24 | Nuvoloso | 21 | 16 | 73 | 1020 | 10 | N 5.5 | |
| Ieri h: 10:53 | Coperto | 19 | 16 | 82 | 1020 | 10 | N 0 | |
| Ieri h: 10:29 | Coperto | 18 | 16 | 88 | 1020 | 10 | SE 7.4 | |
| Ieri h: 09:53 | Coperto | 18 | 15 | 82 | 1020 | 10 | N 0 | |
| Ieri h: 09:27 | Molto Nuvoloso | 18 | 15 | 82 | 1020 | 10 | SE 7.4 | |
| Ieri h: 08:53 | Sereno | 16 | 15 | 93 | 1021 | 10 | N 0 | |
| Ieri h: 07:53 | Nuvoloso | 13 | 13 | 100 | 1021 | 10 | N 0 | |
| Ieri h: 07:51 | Nuvoloso | 13 | 13 | 100 | 1021 | 10 | N 0 | |
| Ieri h: 07:10 | Molto Nuvoloso | 12 | 12 | 100 | 1020 | 13 | N 0 | |
| Ieri h: 06:53 | Foschia | 11 | 11 | 100 | 1020 | 6 | N 0 | |
| Ieri h: 06:48 | Foschia | 11 | 11 | 100 | 1020 | 5 | N 0 | |
| Ieri h: 06:38 | Foschia | 11 | 11 | 100 | 1020 | 5 | N 0 | |
| Ieri h: 06:28 | Foschia | 11 | 11 | 100 | 1020 | 2 | N 0 | |
| Ieri h: 06:19 | Foschia | 11 | 11 | 100 | 1020 | 2 | N 5.5 | |
| Ieri h: 06:08 | Foschia | 11 | 11 | 100 | 1020 | 5 | N 0 | |
| Ieri h: 06:03 | Foschia | 11 | 11 | 100 | 1020 | 5 | N 0 | |
| Ieri h: 05:53 | Foschia | 11 | 11 | 100 | 1019 | 2 | N 0 | |
| Ieri h: 05:42 | Foschia | 11 | 11 | 100 | 1020 | 2 | N 0 | |
| Ieri h: 05:36 | Nebbia | 11 | 11 | 100 | 1019 | 2 | N 0 | |
| Ieri h: 05:28 | Foschia | 11 | 11 | 100 | 1019 | 5 | N 0 | |
| Ieri h: 05:25 | Foschia | 11 | 11 | 100 | 1019 | 2 | N 0 | |
| Ieri h: 05:18 | Sereno | 12 | 12 | 100 | 1019 | 14 | N 0 | |
| Ieri h: 05:10 | Foschia | 13 | 12 | 93 | 1019 | 3 | N 0 | |
| Ieri h: 05:05 | Foschia | 12 | 12 | 100 | 1019 | 2 | N 0 | |
| Ieri h: 04:53 | Nebbia | 12 | 12 | 100 | 1019 | 2 | N 0 | |
| Ieri h: 04:51 | Nebbia | 12 | 12 | 100 | 1019 | 2 | N 0 | |
| Ieri h: 04:41 | Foschia | 12 | 12 | 100 | 1019 | 5 | N 0 | |
| Ieri h: 04:22 | Nebbia | 12 | 12 | 100 | 1019 | 2 | N 0 | |
| Ieri h: 04:14 | Foschia | 12 | 12 | 100 | 1019 | 5 | N 0 | |
| Ieri h: 04:10 | Foschia | 13 | 13 | 100 | 1019 | 2 | N 0 | |
| Ieri h: 04:03 | Foschia | 13 | 12 | 93 | 1019 | 5 | N 0 | |
| Ieri h: 04:00 | Foschia | 13 | 13 | 100 | 1019 | 2 | N 0 | |
| Ieri h: 03:53 | Sereno | 13 | 13 | 100 | 1019 | 13 | N 0 | |
| Ieri h: 03:19 | Foschia | 13 | 13 | 100 | 1019 | 5 | N 0 | |
| Ieri h: 03:04 | Foschia | 14 | 14 | 100 | 1019 | 5 | N 5.5 | |
| Ieri h: 03:00 | Foschia | 13 | 13 | 100 | 1019 | 5 | N 0 | |
| Ieri h: 02:53 | Foschia | 13 | 13 | 100 | 1019 | 3 | N 0 | |
| Ieri h: 02:50 | Foschia | 14 | 14 | 100 | 1019 | 2 | N 0 | |
| Ieri h: 02:28 | Nebbia | 14 | 14 | 100 | 1019 | 2 | N 0 | |
| Ieri h: 02:19 | Nebbia | 14 | 14 | 100 | 1019 | 2 | N 0 | |
| Ieri h: 02:10 | Nebbia | 14 | 14 | 100 | 1019 | 2 | N 0 | |
| Ieri h: 02:07 | Nebbia | 14 | 14 | 100 | 1019 | 2 | N 0 | |
| Ieri h: 02:03 | Foschia | 14 | 14 | 100 | 1019 | 5 | N 0 | |
| Ieri h: 01:53 | Poco Nuvoloso | 15 | 15 | 100 | 1019 | 13 | N 0 | |
| Ieri h: 01:37 | Foschia | 16 | 15 | 93 | 1019 | 5 | N 0 | |
| Ieri h: 01:31 | Foschia | 16 | 15 | 93 | 1019 | 2 | N 0 | |



